EGLLGCGM

Guest
Details From EGLL - London Heathrow
To GCGM - La Gomera
Flight Number -
Tags Generated
Created
Modified
Stats Distance 1,597 nm / 2,958 km
Max Altitude 0 ft / 0 m
Waypoints 5
Social Downloads 1
Likes 0
Share VATSIM

Download

Looking for another format? Having issues loading an existing format? Contact us
Advertisement - Login to hide

Notes

Generated

Route

EGLL TAGEM AGADO LGM GCGM

ID Type Via Altitude Latitude Longitude Leg Dist Tot Dist Heading (true) Name
O EGLL APT - 0 ft / 0 m 51.46477˚ -0.48695˚ - 0 nm - -
TAGEM FIX - 0 ft / 0 m 48.60139˚ -3.40520˚ 205 nm 205 nm 214° / 212° -
AGADO FIX - 0 ft / 0 m 41.87278˚ -8.92667˚ 466 nm 671 nm 212° / 208° -
LGM VOR - 0 ft / 0 m 28.02874˚ -17.21487˚ 925 nm 1596 nm 209° / 204° LA GOMERA VOR-DME
O GCGM APT - 0 ft / 0 m 28.02859˚ -17.22214˚ 0 nm 1597 nm 269° / 269° -

Altitude Profile

Advertisement - Login to hide

Weather


0- 5 10 15 20 25 30 35+ Temperature / ° C

Clouds and Precipitation
Forecast for 2017-12-12 18:00 UTC. Updated 24 minutes ago

Ground ~20,000 ft ~40,000 ft Winds

EGLL

Details ICAO EGLL (LHR)
Name London Heathrow
Region United Kingdom
Timezone Europe/London (UTC+0.0)
Stats Elevation 83 ft / 25 m (AMSL)
Location 51.471218° -0.460978°
Runways 2
Magnetic Variation 0.561° W

METAR

EGLL 121720Z AUTO 18006KT 150V240 9999 NCD 02/M00 Q1009 NOSIG

Decode

TAF

TAF EGLL 121103Z 1212/1318 21006KT CAVOK PROB40 TEMPO 1216/1222 7000 TEMPO 1222/1306 7000 -RA BKN012 PROB30 TEMPO 1300/1306 20015G25KT 3000 RADZ BKN005 TEMPO 1310/1316 22018G28KT 7000 SHRA BKN012 BECMG 1312/1315 27012KT PROB30 TEMPO 1313/1316 4000 +SHRA

Decode

Departure Runways

ID Width Length Bearing (true) Bearing (mag) Surface Threshold Offset Overrun Length
09L 164 ft / 50 m 12,811 ft / 3,905 m 89.64° 90.20° Asphalt 1,004 ft / 306 m 0 ft / 0 m
09R 164 ft / 50 m 12,019 ft / 3,663 m 89.67° 90.23° Asphalt 1,007 ft / 307 m 0 ft / 0 m
27L 164 ft / 50 m 12,019 ft / 3,663 m 269.71° 270.27° Asphalt 0 ft / 0 m 69 ft / 21 m
27R 164 ft / 50 m 12,811 ft / 3,905 m 269.69° 270.25° Asphalt 0 ft / 0 m 69 ft / 21 m

GCGM

Details ICAO GCGM (GMZ)
Name La Gomera
Region Canary Islands
Timezone Atlantic/Canary (UTC+0.0)
Stats Elevation 715 ft / 218 m (AMSL)
Location 28.029627° -17.214603°
Runways 1
Magnetic Variation 5.360° W

METAR

GCGM 121730Z VRB05G16KT 9999 SCT035 19/10 Q1019 RMK R09/VRB07G18KT ARP/VRB02KT

Decode

TAF

TAF GCGM 121400Z 1215/1315 01015KT 9999 FEW040 TX21/1313Z TN17/1306Z TEMPO 1215/1315 VRB15G30KT

Decode

Destination Runways

ID Width Length Bearing (true) Bearing (mag) Surface Threshold Offset Overrun Length
09 98 ft / 30 m 4,914 ft / 1,498 m 81.17° 86.53° Asphalt 0 ft / 0 m 0 ft / 0 m
27 98 ft / 30 m 4,914 ft / 1,498 m 261.18° 266.54° Asphalt 0 ft / 0 m 0 ft / 0 m